createdAt,value
2022-08-31T00:00:28.919Z,20.4
2022-08-31T00:01:28.910Z,20.3
2022-08-31T00:02:28.941Z,20.3
2022-08-31T00:03:28.995Z,20.3
2022-08-31T00:04:28.944Z,20.3
2022-08-31T00:05:28.990Z,20.3
2022-08-31T00:06:28.996Z,20.3
2022-08-31T00:07:29.135Z,20.4
2022-08-31T00:08:29.077Z,20.4
2022-08-31T00:09:28.993Z,20.4
2022-08-31T00:10:32.950Z,20.5
2022-08-31T00:11:29.138Z,20.3
2022-08-31T00:12:29.007Z,20.4
2022-08-31T00:13:28.910Z,20.3
2022-08-31T00:14:28.987Z,20.4
2022-08-31T00:15:28.937Z,20.4
2022-08-31T00:16:28.962Z,20.4
2022-08-31T00:17:28.939Z,20.5
2022-08-31T00:18:33.941Z,20.5
2022-08-31T00:19:28.983Z,20.6
2022-08-31T00:20:33.121Z,20.7
2022-08-31T00:21:28.932Z,20.7
2022-08-31T00:22:28.912Z,20.6
2022-08-31T00:23:28.940Z,20.5
2022-08-31T00:24:28.921Z,20.4
2022-08-31T00:25:28.923Z,20.4
2022-08-31T00:26:28.974Z,20.3
2022-08-31T00:27:28.912Z,20.2
2022-08-31T00:28:28.935Z,20.1
2022-08-31T00:29:28.923Z,20
2022-08-31T00:30:28.923Z,20.1
2022-08-31T00:31:29.023Z,20.2
2022-08-31T00:32:29.352Z,20.2
2022-08-31T00:33:28.975Z,20.1
2022-08-31T00:34:28.951Z,20.1
2022-08-31T00:35:28.922Z,20
2022-08-31T00:36:30.950Z,20
2022-08-31T00:37:28.915Z,20
2022-08-31T00:38:29.295Z,20
2022-08-31T00:39:28.986Z,20
2022-08-31T00:40:29.035Z,20
2022-08-31T00:41:28.923Z,20
2022-08-31T00:42:28.914Z,19.9
2022-08-31T00:43:28.926Z,19.9
2022-08-31T00:44:29.014Z,19.9
2022-08-31T00:45:28.971Z,19.8
2022-08-31T00:46:29.006Z,19.8
2022-08-31T00:47:28.925Z,19.7
2022-08-31T00:48:28.937Z,19.8
2022-08-31T00:49:28.919Z,19.8
2022-08-31T00:50:28.936Z,19.7
2022-08-31T00:51:29.193Z,19.5
2022-08-31T00:52:29.120Z,19.4
2022-08-31T00:53:29.179Z,19.2
2022-08-31T00:54:28.922Z,19.1
2022-08-31T00:55:28.942Z,19
2022-08-31T00:56:28.980Z,18.9
2022-08-31T00:57:28.927Z,18.9
2022-08-31T00:58:28.931Z,18.9
2022-08-31T00:59:28.934Z,18.8
2022-08-31T01:00:29.012Z,18.8
2022-08-31T01:01:29.056Z,18.8
2022-08-31T01:02:28.989Z,18.8
2022-08-31T01:03:28.926Z,18.7
2022-08-31T01:04:28.934Z,18.7
2022-08-31T01:05:28.924Z,18.6
2022-08-31T01:06:28.939Z,18.7
2022-08-31T01:07:29.006Z,18.8
2022-08-31T01:08:30.824Z,18.9
2022-08-31T01:09:28.996Z,18.9
2022-08-31T01:10:28.927Z,19
2022-08-31T01:11:28.946Z,19.1
2022-08-31T01:12:28.936Z,19
2022-08-31T01:13:28.935Z,19
2022-08-31T01:14:28.997Z,19
2022-08-31T01:15:28.945Z,19
2022-08-31T01:16:28.959Z,19
2022-08-31T01:17:28.931Z,19
2022-08-31T01:18:28.925Z,19
2022-08-31T01:19:28.962Z,19
2022-08-31T01:20:28.930Z,18.9
2022-08-31T01:21:29.042Z,18.8
2022-08-31T01:22:28.987Z,19
2022-08-31T01:23:28.931Z,18.9
2022-08-31T01:24:28.930Z,18.9
2022-08-31T01:25:33.456Z,18.8
2022-08-31T01:26:28.935Z,18.7
2022-08-31T01:27:28.938Z,18.7
2022-08-31T01:28:28.998Z,18.7
2022-08-31T01:29:28.944Z,18.7
2022-08-31T01:30:28.933Z,18.5
2022-08-31T01:31:29.104Z,18.6
2022-08-31T01:32:28.976Z,18.6
2022-08-31T01:33:28.936Z,18.7
2022-08-31T01:34:29.003Z,18.7
2022-08-31T01:35:28.978Z,18.8
2022-08-31T01:36:28.959Z,18.8
2022-08-31T01:37:29.483Z,18.9
2022-08-31T01:38:28.989Z,18.9
2022-08-31T01:39:28.988Z,18.9
2022-08-31T01:40:28.959Z,19
2022-08-31T01:41:29.003Z,19
2022-08-31T01:42:33.444Z,19.1
2022-08-31T01:43:30.990Z,19
2022-08-31T01:44:28.940Z,19
2022-08-31T01:45:28.930Z,18.9
2022-08-31T01:46:29.001Z,18.9
2022-08-31T01:47:28.936Z,19
2022-08-31T01:48:29.092Z,19
2022-08-31T01:49:28.927Z,19
2022-08-31T01:50:28.950Z,19
2022-08-31T01:51:28.950Z,19
2022-08-31T01:52:28.975Z,19
2022-08-31T01:53:29.011Z,19.1
2022-08-31T01:54:29.009Z,19.2
2022-08-31T01:55:29.012Z,19.1
2022-08-31T01:56:28.995Z,19.2
2022-08-31T01:57:33.959Z,19.1
2022-08-31T01:58:28.941Z,19.2
2022-08-31T02:00:29.029Z,19.3
2022-08-31T02:01:33.536Z,19.3
2022-08-31T02:02:29.097Z,19.3
2022-08-31T02:03:29.043Z,19.3
2022-08-31T02:04:29.218Z,19.3
2022-08-31T02:05:28.932Z,19.2
2022-08-31T02:06:28.958Z,19.1
2022-08-31T02:07:28.947Z,19
2022-08-31T02:08:28.999Z,18.9
2022-08-31T02:09:29.040Z,18.8
2022-08-31T02:10:28.932Z,18.8
2022-08-31T02:11:29.062Z,18.8
2022-08-31T02:12:29.007Z,18.8
2022-08-31T02:13:29.007Z,18.9
2022-08-31T02:14:29.019Z,18.9
2022-08-31T02:15:29.007Z,18.9
2022-08-31T02:16:29.105Z,18.8
2022-08-31T02:17:28.940Z,18.8
2022-08-31T02:18:28.950Z,18.7
2022-08-31T02:19:28.952Z,18.7
2022-08-31T02:20:29.052Z,18.7
2022-08-31T02:21:28.950Z,18.6
2022-08-31T02:22:29.056Z,18.7
2022-08-31T02:23:28.996Z,18.6
2022-08-31T02:24:28.960Z,18.5
2022-08-31T02:25:28.978Z,18.5
2022-08-31T02:26:28.998Z,18.4
2022-08-31T02:27:28.984Z,18.3
2022-08-31T02:28:28.953Z,18.4
2022-08-31T02:29:29.000Z,18.4
2022-08-31T02:30:29.046Z,18.6
2022-08-31T02:31:29.133Z,18.7
2022-08-31T02:32:28.931Z,18.7
2022-08-31T02:33:29.040Z,18.8
2022-08-31T02:34:28.950Z,18.7
2022-08-31T02:35:28.959Z,18.7
2022-08-31T02:36:28.999Z,18.6
2022-08-31T02:37:28.971Z,18.5
2022-08-31T02:38:29.065Z,18.6
2022-08-31T02:39:28.976Z,18.5
2022-08-31T02:40:29.086Z,18.4
2022-08-31T02:41:29.092Z,18.3
2022-08-31T02:42:32.900Z,18.4
2022-08-31T02:43:29.040Z,18.4
2022-08-31T02:44:29.118Z,18.4
2022-08-31T02:45:29.012Z,18.4
2022-08-31T02:46:29.070Z,18.4
2022-08-31T02:47:28.940Z,18.5
2022-08-31T02:48:28.961Z,18.6
2022-08-31T02:49:28.971Z,18.7
2022-08-31T02:50:31.053Z,18.7
2022-08-31T02:51:28.962Z,18.6
2022-08-31T02:52:29.009Z,18.5
2022-08-31T02:53:29.339Z,18.6
2022-08-31T02:54:29.067Z,18.5
2022-08-31T02:55:29.006Z,18.5
2022-08-31T02:56:28.969Z,18.4
2022-08-31T02:57:29.022Z,18.2
2022-08-31T02:58:28.951Z,18.2
2022-08-31T02:59:29.097Z,18.1
2022-08-31T03:00:28.949Z,18
2022-08-31T03:01:28.994Z,17.8
2022-08-31T03:02:32.015Z,17.8
2022-08-31T03:03:29.014Z,17.8
2022-08-31T03:04:29.018Z,17.7
2022-08-31T03:05:28.970Z,17.5
2022-08-31T03:06:28.950Z,17.5
2022-08-31T03:07:28.955Z,17.4
2022-08-31T03:08:29.660Z,17.4
2022-08-31T03:09:28.941Z,17.3
2022-08-31T03:10:29.059Z,17.2
2022-08-31T03:11:29.022Z,17.1
2022-08-31T03:12:28.957Z,17.1
2022-08-31T03:13:28.978Z,17.1
2022-08-31T03:14:28.977Z,17.1
2022-08-31T03:15:29.006Z,17.1
2022-08-31T03:16:29.007Z,17.1
2022-08-31T03:17:29.018Z,17.1
2022-08-31T03:18:29.038Z,17
2022-08-31T03:19:29.016Z,17
2022-08-31T03:20:29.022Z,17
2022-08-31T03:21:28.966Z,17.1
2022-08-31T03:22:29.047Z,17.1
2022-08-31T03:23:29.056Z,17.2
2022-08-31T03:24:29.046Z,17.3
2022-08-31T03:25:29.057Z,17.2
2022-08-31T03:26:28.954Z,17.3
2022-08-31T03:27:28.956Z,17.4
2022-08-31T03:28:28.960Z,17.5
2022-08-31T03:29:29.098Z,17.5
2022-08-31T03:30:29.713Z,17.5
2022-08-31T03:31:29.083Z,17.6
2022-08-31T03:32:28.959Z,17.7
2022-08-31T03:33:28.960Z,17.8
2022-08-31T03:34:29.032Z,17.8
2022-08-31T03:35:28.963Z,17.8
2022-08-31T03:36:29.034Z,17.7
2022-08-31T03:37:28.971Z,17.8
2022-08-31T03:38:29.048Z,17.8
2022-08-31T03:39:28.968Z,17.8
2022-08-31T03:40:29.126Z,18
2022-08-31T03:41:28.968Z,18
2022-08-31T03:42:28.949Z,17.9
2022-08-31T03:43:28.965Z,18
2022-08-31T03:44:28.975Z,18.1
2022-08-31T03:45:29.059Z,18
2022-08-31T03:46:29.038Z,18.1
2022-08-31T03:47:29.027Z,18.1
2022-08-31T03:48:29.006Z,18.1
2022-08-31T03:49:28.962Z,18.1
2022-08-31T03:50:28.965Z,18.1
2022-08-31T03:51:28.972Z,18.1
2022-08-31T03:52:29.032Z,18.1
2022-08-31T03:53:29.050Z,18.2
2022-08-31T03:54:29.030Z,18.3
2022-08-31T03:55:29.040Z,18.2
2022-08-31T03:56:29.098Z,18.2
2022-08-31T03:57:31.044Z,18.1
2022-08-31T03:58:28.960Z,18.1
2022-08-31T03:59:29.023Z,18.2
2022-08-31T04:00:29.086Z,18.2
2022-08-31T04:01:29.041Z,18.2
2022-08-31T04:02:31.904Z,18.2
2022-08-31T04:03:28.986Z,18.2
2022-08-31T04:04:28.991Z,18.2
2022-08-31T04:05:28.959Z,18.2
2022-08-31T04:06:29.036Z,18.2
2022-08-31T04:07:29.284Z,18.3
2022-08-31T04:08:29.021Z,18.3
2022-08-31T04:09:29.030Z,18.2
2022-08-31T04:10:29.136Z,18.1
2022-08-31T04:11:44.813Z,18
2022-08-31T04:12:29.020Z,18
2022-08-31T04:13:30.350Z,18
2022-08-31T04:14:28.974Z,17.9
2022-08-31T04:15:29.360Z,17.8
2022-08-31T04:16:28.963Z,17.7
2022-08-31T04:17:28.979Z,17.6
2022-08-31T04:18:29.094Z,17.5
2022-08-31T04:19:31.385Z,17.5
2022-08-31T04:20:30.011Z,17.5
2022-08-31T04:21:28.981Z,17.4
2022-08-31T04:22:28.983Z,17.5
2022-08-31T04:23:29.026Z,17.5
2022-08-31T04:24:28.985Z,17.5
2022-08-31T04:25:28.974Z,17.5
2022-08-31T04:26:29.069Z,17.6
2022-08-31T04:27:28.976Z,17.7
2022-08-31T04:28:34.037Z,17.8
2022-08-31T04:29:29.066Z,17.8
2022-08-31T04:30:29.074Z,17.8
2022-08-31T04:31:29.208Z,17.8
2022-08-31T04:32:29.120Z,17.8
2022-08-31T04:33:29.044Z,17.7
2022-08-31T04:34:29.082Z,17.8
2022-08-31T04:35:29.025Z,17.7
2022-08-31T04:36:28.995Z,17.7
2022-08-31T04:37:29.015Z,17.8
2022-08-31T04:38:28.974Z,17.8
2022-08-31T04:39:32.772Z,17.8
2022-08-31T04:40:29.092Z,17.8
2022-08-31T04:41:29.028Z,17.7
2022-08-31T04:42:29.024Z,17.6
2022-08-31T04:43:28.971Z,17.7
2022-08-31T04:44:29.116Z,17.7
2022-08-31T04:45:29.020Z,17.7
2022-08-31T04:46:28.964Z,17.7
2022-08-31T04:47:29.209Z,17.8
2022-08-31T04:48:28.983Z,17.7
2022-08-31T04:49:29.073Z,17.6
2022-08-31T04:50:28.983Z,17.6
2022-08-31T04:51:29.001Z,17.5
2022-08-31T04:52:28.978Z,17.5
2022-08-31T04:53:28.983Z,17.4
2022-08-31T04:54:29.041Z,17.4
2022-08-31T04:55:29.016Z,17.4
2022-08-31T04:56:28.976Z,17.4
2022-08-31T04:57:29.031Z,17.5
2022-08-31T04:58:28.977Z,17.5
2022-08-31T04:59:28.971Z,17.5
2022-08-31T05:00:28.989Z,17.7
2022-08-31T05:01:29.140Z,17.8
2022-08-31T05:02:29.136Z,17.9
2022-08-31T05:03:28.975Z,17.9
2022-08-31T05:04:31.035Z,17.9
2022-08-31T05:05:28.981Z,17.8
2022-08-31T05:06:28.964Z,17.8
2022-08-31T05:07:29.041Z,17.9
2022-08-31T05:08:29.207Z,17.9
2022-08-31T05:09:28.969Z,17.8
2022-08-31T05:10:29.022Z,17.8
2022-08-31T05:11:29.014Z,17.8
2022-08-31T05:12:28.978Z,17.8
2022-08-31T05:13:28.981Z,17.6
2022-08-31T05:14:29.057Z,17.7
2022-08-31T05:15:29.072Z,17.8
2022-08-31T05:16:29.055Z,17.8
2022-08-31T05:17:29.069Z,17.9
2022-08-31T05:18:28.975Z,17.8
2022-08-31T05:19:29.023Z,17.8
2022-08-31T05:20:29.076Z,17.8
2022-08-31T05:21:29.059Z,17.8
2022-08-31T05:22:29.219Z,17.8
2022-08-31T05:23:29.376Z,17.8
2022-08-31T05:24:29.116Z,17.9
2022-08-31T05:25:29.161Z,17.9
2022-08-31T05:26:29.333Z,17.9
2022-08-31T05:27:29.232Z,17.8
2022-08-31T05:28:29.053Z,17.6
2022-08-31T05:29:28.987Z,17.6
2022-08-31T05:30:29.184Z,17.6
2022-08-31T05:31:29.290Z,17.6
2022-08-31T05:32:28.972Z,17.7
2022-08-31T05:33:28.998Z,17.7
2022-08-31T05:34:29.077Z,17.7
2022-08-31T05:35:29.042Z,17.6
2022-08-31T05:36:28.976Z,17.5
2022-08-31T05:37:29.085Z,17.5
2022-08-31T05:38:28.987Z,17.8
2022-08-31T05:39:28.991Z,17.9
2022-08-31T05:40:29.033Z,17.9
2022-08-31T05:41:29.010Z,17.8
2022-08-31T05:42:29.039Z,17.7
2022-08-31T05:43:29.026Z,17.6
2022-08-31T05:44:29.673Z,17.5
2022-08-31T05:45:28.992Z,17.4
2022-08-31T05:46:29.089Z,17.3
2022-08-31T05:47:29.039Z,17.2
2022-08-31T05:48:29.988Z,17.3
2022-08-31T05:49:29.034Z,17.3
2022-08-31T05:50:29.087Z,17.4
2022-08-31T05:51:29.007Z,17.3
2022-08-31T05:52:29.094Z,17.3
2022-08-31T05:53:29.134Z,17.2
2022-08-31T05:54:29.117Z,17.3
2022-08-31T05:55:29.034Z,17.2
2022-08-31T05:56:29.037Z,17.1
2022-08-31T05:57:28.986Z,17.1
2022-08-31T05:58:29.018Z,17.2
2022-08-31T05:59:28.996Z,17.3
2022-08-31T06:00:29.065Z,17.3
2022-08-31T06:01:29.063Z,17.3
2022-08-31T06:02:29.657Z,17.2
2022-08-31T06:03:29.067Z,17.2
2022-08-31T06:04:29.040Z,17.2
2022-08-31T06:05:29.158Z,17.2
2022-08-31T06:06:28.995Z,17.3
2022-08-31T06:07:29.051Z,17.3
2022-08-31T06:08:28.982Z,17.3
2022-08-31T06:09:29.092Z,17.3
2022-08-31T06:10:29.033Z,17.3
2022-08-31T06:11:31.124Z,17.3
2022-08-31T06:12:28.996Z,17.2
2022-08-31T06:13:29.084Z,17.1
2022-08-31T06:14:29.082Z,17
2022-08-31T06:15:29.031Z,17.1
2022-08-31T06:16:29.109Z,17.1
2022-08-31T06:17:28.995Z,17.1
2022-08-31T06:18:28.993Z,17.1
2022-08-31T06:19:28.998Z,17.3
2022-08-31T06:20:29.006Z,17.3
2022-08-31T06:21:29.063Z,17.4
2022-08-31T06:22:28.985Z,17.4
2022-08-31T06:23:29.073Z,17.4
2022-08-31T06:24:29.003Z,17.4
2022-08-31T06:25:29.076Z,17.3
2022-08-31T06:26:29.060Z,17.3
2022-08-31T06:27:29.020Z,17.3
2022-08-31T06:28:29.151Z,17.2
2022-08-31T06:29:29.004Z,17.2
2022-08-31T06:30:29.061Z,17.2
2022-08-31T06:31:29.102Z,17.2
2022-08-31T06:32:29.005Z,17.3
2022-08-31T06:33:29.001Z,17.3
2022-08-31T06:34:29.205Z,17.2
2022-08-31T06:35:28.994Z,17.2
2022-08-31T06:36:29.003Z,17.1
2022-08-31T06:37:29.069Z,17.1
2022-08-31T06:38:29.054Z,17.2
2022-08-31T06:39:28.994Z,17.2
2022-08-31T06:40:29.107Z,17.2
2022-08-31T06:41:32.109Z,17.2
2022-08-31T06:42:29.005Z,17.2
2022-08-31T06:43:29.049Z,17.2
2022-08-31T06:44:29.053Z,17.2
2022-08-31T06:45:28.998Z,17.2
2022-08-31T06:46:29.106Z,17.2
2022-08-31T06:47:29.025Z,17.2
2022-08-31T06:48:29.030Z,17.3
2022-08-31T06:49:29.000Z,17.4
2022-08-31T06:50:29.040Z,17.5
2022-08-31T06:51:29.122Z,17.6
2022-08-31T06:52:29.056Z,17.6
2022-08-31T06:53:28.987Z,17.5
2022-08-31T06:54:30.451Z,17.5
2022-08-31T06:55:29.070Z,17.7
2022-08-31T06:56:29.003Z,17.7
2022-08-31T06:57:29.078Z,17.8
2022-08-31T06:58:28.993Z,17.8
2022-08-31T06:59:29.975Z,17.8
2022-08-31T07:00:28.997Z,17.8
2022-08-31T07:01:35.090Z,17.7
2022-08-31T07:02:29.080Z,17.8
2022-08-31T07:03:28.993Z,17.9
2022-08-31T07:04:29.080Z,17.8
2022-08-31T07:05:29.005Z,17.9
2022-08-31T07:06:28.988Z,18
2022-08-31T07:07:28.986Z,18.1
2022-08-31T07:08:29.008Z,18.2
2022-08-31T07:09:28.993Z,18.1
2022-08-31T07:10:28.990Z,18.1
2022-08-31T07:11:29.058Z,18.1
2022-08-31T07:12:29.002Z,18.2
2022-08-31T07:13:29.064Z,18.3
2022-08-31T07:14:29.088Z,18.4
2022-08-31T07:15:29.008Z,18.4
2022-08-31T07:16:29.088Z,18.5
2022-08-31T07:17:29.007Z,18.6
2022-08-31T07:18:36.117Z,18.7
2022-08-31T07:19:28.998Z,18.7
2022-08-31T07:20:29.120Z,18.7
2022-08-31T07:21:29.048Z,18.7
2022-08-31T07:22:29.040Z,18.7
2022-08-31T07:23:29.043Z,18.8
2022-08-31T07:24:29.027Z,18.8
2022-08-31T07:25:29.061Z,18.8
2022-08-31T07:26:31.490Z,18.7
2022-08-31T07:27:29.010Z,18.7
2022-08-31T07:28:28.983Z,18.7
2022-08-31T07:29:28.997Z,18.7
2022-08-31T07:30:29.124Z,18.8
2022-08-31T07:31:29.029Z,18.8
2022-08-31T07:32:29.064Z,18.9
2022-08-31T07:33:28.999Z,18.9
2022-08-31T07:34:29.017Z,19.2
2022-08-31T07:35:29.054Z,19.3
2022-08-31T07:36:29.000Z,19.4
2022-08-31T07:37:29.000Z,19.5
2022-08-31T07:38:29.044Z,19.6
2022-08-31T07:39:29.039Z,19.5
2022-08-31T07:40:29.104Z,19.6
2022-08-31T07:41:29.012Z,19.9
2022-08-31T07:42:29.015Z,20.1
2022-08-31T07:43:29.010Z,20.1
2022-08-31T07:44:29.099Z,20
2022-08-31T07:45:31.235Z,19.9
2022-08-31T07:46:29.123Z,19.8
2022-08-31T07:47:29.253Z,19.8
2022-08-31T07:48:29.021Z,19.7
2022-08-31T07:49:29.042Z,19.6
2022-08-31T07:50:29.094Z,19.7
2022-08-31T07:51:29.131Z,19.7
2022-08-31T07:52:29.309Z,19.7
2022-08-31T07:53:29.286Z,19.7
2022-08-31T07:54:34.128Z,19.9
2022-08-31T07:55:34.081Z,20.2
2022-08-31T07:56:35.052Z,20.3
2022-08-31T07:57:29.000Z,20.4
2022-08-31T07:58:34.038Z,20.6
2022-08-31T07:59:29.069Z,20.7
2022-08-31T08:00:34.040Z,20.8
2022-08-31T08:01:29.132Z,20.6
2022-08-31T08:02:29.217Z,20.7
2022-08-31T08:03:29.008Z,20.8
2022-08-31T08:04:29.007Z,20.8
2022-08-31T08:05:29.186Z,20.8
2022-08-31T08:06:32.861Z,20.9
2022-08-31T08:07:29.010Z,21.1
2022-08-31T08:08:29.072Z,21
2022-08-31T08:09:29.005Z,21.2
2022-08-31T08:10:29.004Z,21.3
2022-08-31T08:11:29.015Z,21.2
2022-08-31T08:12:29.009Z,21.3
2022-08-31T08:13:29.080Z,21.6
2022-08-31T08:14:30.312Z,21.8
2022-08-31T08:15:29.012Z,22
2022-08-31T08:16:29.096Z,21.7
2022-08-31T08:17:29.006Z,21.8
2022-08-31T08:18:29.016Z,22
2022-08-31T08:19:29.029Z,22.3
2022-08-31T08:20:37.256Z,22.4
2022-08-31T08:21:29.004Z,22.4
2022-08-31T08:22:50.724Z,22.3
2022-08-31T08:23:29.161Z,22.4
2022-08-31T08:24:29.011Z,22.8
2022-08-31T08:25:31.037Z,22.9
2022-08-31T08:26:29.101Z,23.1
2022-08-31T08:27:29.076Z,23.3
2022-08-31T08:28:39.234Z,23.4
2022-08-31T08:29:29.178Z,23.5
2022-08-31T08:30:29.207Z,23.7
2022-08-31T08:31:29.190Z,23.6
2022-08-31T08:32:29.012Z,23.6
2022-08-31T08:33:29.057Z,23.7
2022-08-31T08:34:32.309Z,23.5
2022-08-31T08:35:29.013Z,23.7
2022-08-31T08:36:29.048Z,23.4
2022-08-31T08:37:54.219Z,23.5
2022-08-31T08:38:29.014Z,23.6
2022-08-31T08:39:29.023Z,23.7
2022-08-31T08:40:29.165Z,23.8
2022-08-31T08:41:29.008Z,23.7
2022-08-31T08:42:29.021Z,23.5
2022-08-31T08:43:31.033Z,23.7
2022-08-31T08:44:29.018Z,24
2022-08-31T08:45:29.112Z,24.1
2022-08-31T08:46:35.202Z,24.3
2022-08-31T08:47:38.318Z,24
2022-08-31T08:48:29.022Z,24
2022-08-31T08:49:29.030Z,23.9
2022-08-31T08:50:29.017Z,24.1
2022-08-31T08:51:29.019Z,24.2
2022-08-31T08:52:29.079Z,24.6
2022-08-31T08:53:29.013Z,24.7
2022-08-31T08:54:29.085Z,24.7
2022-08-31T08:55:29.020Z,24.4
2022-08-31T08:56:33.850Z,24.5
2022-08-31T08:57:29.015Z,24.6
2022-08-31T08:58:29.027Z,24.4
2022-08-31T08:59:34.065Z,24.6
2022-08-31T09:00:34.026Z,24.6
2022-08-31T09:01:29.217Z,24.4
2022-08-31T09:02:29.046Z,24.4
2022-08-31T09:03:29.507Z,24.1
2022-08-31T09:04:29.013Z,24.1
2022-08-31T09:05:29.021Z,24.1
2022-08-31T09:06:40.482Z,24
2022-08-31T09:07:29.024Z,24
2022-08-31T09:08:29.085Z,24
2022-08-31T09:09:29.032Z,23.9
2022-08-31T09:10:29.017Z,23.9
2022-08-31T09:11:29.019Z,23.7
2022-08-31T09:12:29.032Z,23.5
2022-08-31T09:13:29.023Z,23.4
2022-08-31T09:14:29.044Z,23.3
2022-08-31T09:15:29.086Z,23
2022-08-31T09:16:29.109Z,22.8
2022-08-31T09:17:29.044Z,23
2022-08-31T09:18:29.034Z,23
2022-08-31T09:19:29.040Z,23.3
2022-08-31T09:20:29.035Z,23.2
2022-08-31T09:21:29.080Z,23.3
2022-08-31T09:22:29.080Z,23.2
2022-08-31T09:23:29.087Z,23.2
2022-08-31T09:24:29.026Z,23.5
2022-08-31T09:25:29.059Z,23.5
2022-08-31T09:26:29.029Z,23.6
2022-08-31T09:27:29.026Z,23.9
2022-08-31T09:28:29.076Z,23.9
2022-08-31T09:29:29.105Z,23.9
2022-08-31T09:30:29.057Z,23.9
2022-08-31T09:31:29.073Z,23.8
2022-08-31T09:32:31.096Z,23.9
2022-08-31T09:33:29.028Z,24
2022-08-31T09:34:29.005Z,23.9
2022-08-31T09:35:29.146Z,24
2022-08-31T09:36:29.037Z,24
2022-08-31T09:37:29.044Z,23.9
2022-08-31T09:38:29.055Z,24.1
2022-08-31T09:39:29.030Z,24.2
2022-08-31T09:40:29.121Z,24
2022-08-31T09:41:28.994Z,24
2022-08-31T09:42:29.096Z,24
2022-08-31T09:43:29.038Z,23.9
2022-08-31T09:44:29.054Z,24
2022-08-31T09:45:29.085Z,24.3
2022-08-31T09:46:29.124Z,24.3
2022-08-31T09:47:29.039Z,24.3
2022-08-31T09:48:29.041Z,24.2
2022-08-31T09:49:29.118Z,24.3
2022-08-31T09:50:29.029Z,24.2
2022-08-31T09:51:29.101Z,24.2
2022-08-31T09:52:29.032Z,24.2
2022-08-31T09:53:29.037Z,24.1
2022-08-31T09:54:29.045Z,24
2022-08-31T09:55:29.039Z,24
2022-08-31T09:56:29.094Z,24.3
2022-08-31T09:57:29.032Z,24.4
2022-08-31T09:58:29.149Z,24.4
2022-08-31T09:59:29.037Z,24.3
2022-08-31T10:00:29.051Z,24.5
2022-08-31T10:01:29.175Z,24.6
2022-08-31T10:02:29.144Z,24.5
2022-08-31T10:03:29.109Z,24.5
2022-08-31T10:04:29.097Z,24.5
2022-08-31T10:05:29.136Z,24.7
2022-08-31T10:06:29.048Z,24.6
2022-08-31T10:07:29.055Z,24.5
2022-08-31T10:08:29.048Z,24.3
2022-08-31T10:09:29.128Z,24.3
2022-08-31T10:10:31.132Z,24.2
2022-08-31T10:11:29.041Z,24.2
2022-08-31T10:12:29.036Z,24.1
2022-08-31T10:13:29.093Z,24.2
2022-08-31T10:14:34.054Z,24.4
2022-08-31T10:15:29.041Z,24.4
2022-08-31T10:16:29.168Z,24.5
2022-08-31T10:17:32.009Z,24.6
2022-08-31T10:18:29.046Z,24.3
2022-08-31T10:19:29.047Z,24.3
2022-08-31T10:20:30.532Z,24.3
2022-08-31T10:21:29.048Z,24.4
2022-08-31T10:22:29.049Z,24.6
2022-08-31T10:23:29.080Z,24.6
2022-08-31T10:24:29.034Z,24.5
2022-08-31T10:25:29.046Z,24.6
2022-08-31T10:26:29.106Z,24.5
2022-08-31T10:27:29.048Z,24.4
2022-08-31T10:28:29.245Z,24.5
2022-08-31T10:29:29.042Z,24.4
2022-08-31T10:30:29.125Z,24.5
2022-08-31T10:31:29.127Z,24.8
2022-08-31T10:32:29.048Z,24.9
2022-08-31T10:33:29.047Z,24.8
2022-08-31T10:34:29.046Z,24.9
2022-08-31T10:35:29.046Z,24.8
2022-08-31T10:36:29.195Z,24.9
2022-08-31T10:37:29.155Z,25.1
2022-08-31T10:38:29.179Z,25.3
2022-08-31T10:39:31.120Z,25.2
2022-08-31T10:40:29.106Z,25.2
2022-08-31T10:41:34.397Z,25.1
2022-08-31T10:42:29.050Z,25.1
2022-08-31T10:43:29.044Z,25.2
2022-08-31T10:44:29.128Z,25.1
2022-08-31T10:45:29.057Z,25.2
2022-08-31T10:46:29.173Z,25.2
2022-08-31T10:47:33.690Z,25.3
2022-08-31T10:48:29.098Z,25.2
2022-08-31T10:49:29.044Z,25.2
2022-08-31T10:50:29.058Z,25.2
2022-08-31T10:51:29.117Z,25.2
2022-08-31T10:52:29.070Z,25.3
2022-08-31T10:53:29.171Z,25.3
2022-08-31T10:54:29.052Z,25.6
2022-08-31T10:55:29.068Z,25.5
2022-08-31T10:56:29.047Z,25.7
2022-08-31T10:57:43.130Z,25.5
2022-08-31T10:58:29.114Z,25.2
2022-08-31T10:59:29.052Z,25.2
2022-08-31T11:00:29.144Z,25.3
2022-08-31T11:01:29.114Z,25.2
2022-08-31T11:02:34.572Z,25.5
2022-08-31T11:03:29.127Z,25.4
2022-08-31T11:04:34.155Z,25.3
2022-08-31T11:05:29.122Z,25.2
2022-08-31T11:06:29.058Z,25.1
2022-08-31T11:07:29.092Z,25
2022-08-31T11:08:29.102Z,25.2
2022-08-31T11:09:29.057Z,25
2022-08-31T11:10:29.355Z,24.9
2022-08-31T11:11:29.099Z,24.9
2022-08-31T11:12:29.120Z,24.7
2022-08-31T11:13:29.101Z,25.1
2022-08-31T11:14:43.134Z,25.1
2022-08-31T11:15:29.105Z,25
2022-08-31T11:16:30.873Z,25.2
2022-08-31T11:17:29.062Z,25.1
2022-08-31T11:18:29.099Z,25.2
2022-08-31T11:19:29.132Z,25.3
2022-08-31T11:20:29.058Z,25.4
2022-08-31T11:21:34.127Z,25.3
2022-08-31T11:22:29.068Z,25.5
2022-08-31T11:23:29.061Z,25.6
2022-08-31T11:24:30.810Z,25.6
2022-08-31T11:25:29.148Z,25.6
2022-08-31T11:26:29.146Z,25.8
2022-08-31T11:27:29.066Z,25.8
2022-08-31T11:28:29.067Z,26
2022-08-31T11:29:29.083Z,26.2
2022-08-31T11:30:29.098Z,26.6
2022-08-31T11:31:29.135Z,26.7
2022-08-31T11:32:29.262Z,27
2022-08-31T11:33:34.261Z,26.8
2022-08-31T11:34:29.116Z,26.9
2022-08-31T11:35:29.127Z,26.7
2022-08-31T11:36:29.054Z,26.5
2022-08-31T11:37:34.191Z,26.1
2022-08-31T11:38:29.255Z,26.1
2022-08-31T11:39:29.150Z,26
2022-08-31T11:40:29.217Z,25.9
2022-08-31T11:41:29.190Z,25.8
2022-08-31T11:42:29.263Z,25.9
2022-08-31T11:43:29.313Z,25.8
2022-08-31T11:44:29.359Z,25.7
2022-08-31T11:45:29.358Z,25.6
2022-08-31T11:46:31.393Z,25.6
2022-08-31T11:47:29.427Z,25.5
2022-08-31T11:48:29.469Z,25.9
2022-08-31T11:49:29.075Z,25.9
2022-08-31T11:50:43.374Z,25.9
2022-08-31T11:51:29.081Z,26.1
2022-08-31T11:52:29.045Z,25.9
2022-08-31T11:53:29.164Z,26.1
2022-08-31T11:54:29.067Z,26.3
2022-08-31T11:55:29.096Z,26.3
2022-08-31T11:56:29.150Z,26.6
2022-08-31T11:57:32.184Z,26.8
2022-08-31T11:58:29.087Z,27
2022-08-31T11:59:29.115Z,26.8
2022-08-31T12:00:29.142Z,27
2022-08-31T12:01:29.091Z,27.1
2022-08-31T12:02:29.300Z,27.8
2022-08-31T12:03:29.084Z,28.3
2022-08-31T12:04:29.139Z,28.1
2022-08-31T12:05:29.127Z,28.3
2022-08-31T12:06:29.154Z,28.8
2022-08-31T12:07:29.157Z,29
2022-08-31T12:08:29.087Z,29
2022-08-31T12:09:34.265Z,29.1
2022-08-31T12:10:29.081Z,29.3
2022-08-31T12:11:29.069Z,29.4
2022-08-31T12:12:29.081Z,29.3
2022-08-31T12:13:29.280Z,28.8
2022-08-31T12:14:43.715Z,28.2
2022-08-31T12:15:29.201Z,28.2
2022-08-31T12:16:29.242Z,28.2
2022-08-31T12:17:29.081Z,28.1
2022-08-31T12:18:29.094Z,27.5
2022-08-31T12:19:29.069Z,27.6
2022-08-31T12:20:29.143Z,27.3
2022-08-31T12:21:30.036Z,27.1
2022-08-31T12:22:29.131Z,27.1
2022-08-31T12:23:30.829Z,27.7
2022-08-31T12:24:29.745Z,27.6
2022-08-31T12:25:29.086Z,27.7
2022-08-31T12:26:40.656Z,27.8
2022-08-31T12:27:29.165Z,27.6
2022-08-31T12:28:29.534Z,27.6
2022-08-31T12:29:29.102Z,28.1
2022-08-31T12:30:29.072Z,28.8
2022-08-31T12:31:29.128Z,29.3
2022-08-31T12:32:29.085Z,29.7
2022-08-31T12:33:29.862Z,30.5
2022-08-31T12:34:29.145Z,31.1
2022-08-31T12:35:29.086Z,32
2022-08-31T12:36:29.106Z,32.4
2022-08-31T12:37:34.208Z,32.6
2022-08-31T12:38:35.454Z,32.3
2022-08-31T12:39:29.094Z,32.8
2022-08-31T12:40:29.217Z,33.2
2022-08-31T12:41:29.130Z,33.6
2022-08-31T12:42:29.086Z,33
2022-08-31T12:43:29.572Z,33.7
2022-08-31T12:44:29.204Z,33.7
2022-08-31T12:45:29.087Z,33.7
2022-08-31T12:46:29.307Z,33.6
2022-08-31T12:47:29.136Z,33.5
2022-08-31T12:48:29.094Z,33.5
2022-08-31T12:49:29.090Z,33.5
2022-08-31T12:50:29.118Z,33.1
2022-08-31T12:51:29.085Z,32.6
2022-08-31T12:52:29.143Z,32
2022-08-31T12:53:31.152Z,31.5
2022-08-31T12:54:29.164Z,31.1
2022-08-31T12:55:29.105Z,30.4
2022-08-31T12:56:29.109Z,29.8
2022-08-31T12:57:29.486Z,29.5
2022-08-31T12:58:29.096Z,29.3
2022-08-31T12:59:45.770Z,29.6
2022-08-31T13:00:29.226Z,30.1
2022-08-31T13:01:29.251Z,31.1
2022-08-31T13:02:29.198Z,32.2
2022-08-31T13:03:29.105Z,32.6
2022-08-31T13:04:29.104Z,33.4
2022-08-31T13:05:29.094Z,33.7
2022-08-31T13:06:29.117Z,34.1
2022-08-31T13:07:29.100Z,34.5
2022-08-31T13:08:29.158Z,34.6
2022-08-31T13:09:29.174Z,35.3
2022-08-31T13:10:29.129Z,35.2
2022-08-31T13:11:34.976Z,35.3
2022-08-31T13:12:29.102Z,35.3
2022-08-31T13:13:29.104Z,35.6
2022-08-31T13:14:29.258Z,35.3
2022-08-31T13:15:29.159Z,35.1
2022-08-31T13:16:29.145Z,34.6
2022-08-31T13:17:29.091Z,35.8
2022-08-31T13:18:29.110Z,36.5
2022-08-31T13:19:29.096Z,36.9
2022-08-31T13:20:29.121Z,37.1
2022-08-31T13:21:29.146Z,36.8
2022-08-31T13:22:29.181Z,36.6
2022-08-31T13:23:29.100Z,36.8
2022-08-31T13:24:29.758Z,37.3